Terminal Aerodrome Forecast
Issued by NWS

Home | Current Version | Previous Version | Text Only | Print | Product List | Glossary On
Versions: 1 2 3 4 5 6 7 8 9 10
000
FTUS42 TJSJ 262300 RRA
TAFJPS
TAF
TJPS 262341Z 2700/2724 VRB03KT P6SM SKC
     FM271500 14010KT P6SM FEW030
     FM272330 07005KT P6SM FEW030 SCT060
      AMD NOT SKED TIL 270300=

USA.gov is the U.S. government's official web portal to all federal, state and local government web resources and services.